createdAt,value
2017-08-20T00:00:37.753Z,0
2017-08-20T00:01:37.436Z,0
2017-08-20T00:02:37.742Z,0
2017-08-20T00:03:37.736Z,0
2017-08-20T00:04:38.044Z,0
2017-08-20T00:05:38.036Z,0
2017-08-20T00:06:38.030Z,0
2017-08-20T00:07:38.043Z,0
2017-08-20T00:08:37.724Z,0
2017-08-20T00:09:38.030Z,0
2017-08-20T00:10:38.019Z,0
2017-08-20T00:11:38.027Z,0
2017-08-20T00:12:37.713Z,0
2017-08-20T00:13:37.708Z,0
2017-08-20T00:14:38.005Z,0
2017-08-20T00:15:37.704Z,0
2017-08-20T00:16:37.695Z,0
2017-08-20T00:17:37.693Z,0
2017-08-20T00:18:37.687Z,0
2017-08-20T00:19:37.993Z,0
2017-08-20T00:20:37.983Z,0
2017-08-20T00:21:37.681Z,0
2017-08-20T00:22:37.672Z,0
2017-08-20T00:23:37.672Z,0
2017-08-20T00:24:37.361Z,0
2017-08-20T00:25:37.663Z,0
2017-08-20T00:26:37.660Z,0
2017-08-20T00:27:37.351Z,0
2017-08-20T00:28:37.665Z,0
2017-08-20T00:29:37.960Z,0
2017-08-20T00:30:37.655Z,0
2017-08-20T00:31:37.648Z,0
2017-08-20T00:32:37.647Z,0
2017-08-20T00:33:37.948Z,0
2017-08-20T00:34:37.947Z,0
2017-08-20T00:35:37.644Z,0
2017-08-20T00:36:37.327Z,0
2017-08-20T00:37:37.328Z,0
2017-08-20T00:38:37.627Z,0
2017-08-20T00:39:37.620Z,0
2017-08-20T00:40:37.615Z,0
2017-08-20T00:41:37.307Z,0
2017-08-20T00:42:37.915Z,0
2017-08-20T00:43:37.304Z,0
2017-08-20T00:44:37.305Z,0
2017-08-20T00:45:37.297Z,0
2017-08-20T00:46:37.906Z,0
2017-08-20T00:47:37.904Z,0
2017-08-20T00:48:37.585Z,0
2017-08-20T00:49:37.590Z,0
2017-08-20T00:50:37.578Z,0
2017-08-20T00:51:37.586Z,0
2017-08-20T00:52:37.581Z,0
2017-08-20T00:53:37.577Z,0
2017-08-20T00:54:37.264Z,0
2017-08-20T00:55:37.264Z,0
2017-08-20T00:56:37.876Z,0
2017-08-20T00:57:37.871Z,0
2017-08-20T00:58:37.554Z,0
2017-08-20T00:59:37.559Z,0
2017-08-20T01:00:37.552Z,0
2017-08-20T01:01:37.855Z,0
2017-08-20T01:02:37.545Z,0
2017-08-20T01:03:37.945Z,0
2017-08-20T01:04:37.537Z,0
2017-08-20T01:05:37.535Z,0
2017-08-20T01:06:37.841Z,0
2017-08-20T01:07:37.538Z,0
2017-08-20T01:08:37.837Z,0
2017-08-20T01:09:37.830Z,0
2017-08-20T01:10:37.827Z,0
2017-08-20T01:11:37.531Z,0
2017-08-20T01:12:37.820Z,0
2017-08-20T01:13:37.816Z,0
2017-08-20T01:14:37.819Z,0
2017-08-20T01:15:37.845Z,0
2017-08-20T01:16:37.189Z,0
2017-08-20T01:17:37.804Z,0
2017-08-20T01:18:37.489Z,0
2017-08-20T01:19:37.183Z,0
2017-08-20T01:20:37.788Z,0
2017-08-20T01:21:37.791Z,0
2017-08-20T01:22:37.784Z,0
2017-08-20T01:23:37.780Z,0
2017-08-20T01:24:37.779Z,0
2017-08-20T01:25:37.773Z,0
2017-08-20T01:26:37.771Z,0
2017-08-20T01:27:37.775Z,0
2017-08-20T01:28:37.459Z,0
2017-08-20T01:29:37.453Z,0
2017-08-20T01:30:37.759Z,0
2017-08-20T01:31:37.756Z,0
2017-08-20T01:32:37.139Z,0
2017-08-20T01:33:37.445Z,0
2017-08-20T01:34:37.747Z,0
2017-08-20T01:35:37.736Z,0
2017-08-20T01:36:37.431Z,0
2017-08-20T01:37:37.734Z,0
2017-08-20T01:38:37.726Z,0
2017-08-20T01:39:37.726Z,0
2017-08-20T01:40:37.728Z,0
2017-08-20T01:41:37.422Z,0
2017-08-20T01:42:37.415Z,0
2017-08-20T01:43:37.721Z,0
2017-08-20T01:44:37.406Z,0
2017-08-20T01:45:37.706Z,0
2017-08-20T01:46:37.703Z,0
2017-08-20T01:47:37.695Z,0
2017-08-20T01:48:37.692Z,0
2017-08-20T01:49:37.700Z,0
2017-08-20T01:50:37.687Z,0
2017-08-20T01:51:37.685Z,0
2017-08-20T01:52:37.679Z,0
2017-08-20T01:53:37.376Z,0
2017-08-20T01:54:36.762Z,0
2017-08-20T01:55:37.672Z,0
2017-08-20T01:56:37.360Z,0
2017-08-20T01:57:37.362Z,0
2017-08-20T01:58:37.351Z,0
2017-08-20T01:59:37.354Z,0
2017-08-20T02:00:37.050Z,0
2017-08-20T02:01:37.355Z,0
2017-08-20T02:02:37.346Z,0
2017-08-20T02:03:37.336Z,0
2017-08-20T02:04:37.340Z,0
2017-08-20T02:05:37.640Z,0
2017-08-20T02:06:37.635Z,0
2017-08-20T02:07:37.325Z,0
2017-08-20T02:08:37.626Z,0
2017-08-20T02:09:37.332Z,0
2017-08-20T02:10:37.315Z,0
2017-08-20T02:11:37.619Z,0
2017-08-20T02:12:37.619Z,0
2017-08-20T02:13:37.616Z,0
2017-08-20T02:14:37.612Z,0
2017-08-20T02:15:37.608Z,0
2017-08-20T02:16:37.598Z,0
2017-08-20T02:17:37.629Z,0
2017-08-20T02:18:37.286Z,0
2017-08-20T02:19:37.594Z,0
2017-08-20T02:20:37.281Z,0
2017-08-20T02:21:37.595Z,0
2017-08-20T02:22:37.578Z,0
2017-08-20T02:23:37.278Z,0
2017-08-20T02:24:37.577Z,0
2017-08-20T02:25:37.273Z,0
2017-08-20T02:26:37.262Z,0
2017-08-20T02:27:37.262Z,0
2017-08-20T02:28:37.560Z,0
2017-08-20T02:29:37.561Z,0
2017-08-20T02:30:37.552Z,0
2017-08-20T02:31:37.557Z,0
2017-08-20T02:32:37.553Z,0
2017-08-20T02:33:37.552Z,0
2017-08-20T02:34:37.539Z,0
2017-08-20T02:35:37.254Z,0
2017-08-20T02:36:37.539Z,0
2017-08-20T02:37:37.222Z,0
2017-08-20T02:38:37.529Z,0
2017-08-20T02:39:37.525Z,0
2017-08-20T02:40:37.517Z,0
2017-08-20T02:41:37.518Z,0
2017-08-20T02:42:37.518Z,0
2017-08-20T02:43:37.512Z,0
2017-08-20T02:44:37.507Z,0
2017-08-20T02:45:37.506Z,0
2017-08-20T02:46:37.507Z,0
2017-08-20T02:47:37.190Z,0
2017-08-20T02:48:37.493Z,0
2017-08-20T02:49:37.489Z,0
2017-08-20T02:50:37.485Z,0
2017-08-20T02:51:37.175Z,0
2017-08-20T02:52:37.182Z,0
2017-08-20T02:53:37.500Z,0
2017-08-20T02:54:36.861Z,0
2017-08-20T02:55:37.163Z,0
2017-08-20T02:56:37.466Z,0
2017-08-20T02:57:37.161Z,0
2017-08-20T02:58:37.456Z,0
2017-08-20T02:59:37.155Z,0
2017-08-20T03:00:37.139Z,0
2017-08-20T03:01:37.141Z,0
2017-08-20T03:02:36.832Z,0
2017-08-20T03:03:37.142Z,0
2017-08-20T03:04:37.439Z,0
2017-08-20T03:05:36.823Z,0
2017-08-20T03:06:37.431Z,0
2017-08-20T03:07:37.118Z,0
2017-08-20T03:08:37.419Z,0
2017-08-20T03:09:37.111Z,0
2017-08-20T03:10:37.442Z,0
2017-08-20T03:11:37.104Z,0
2017-08-20T03:12:37.104Z,0
2017-08-20T03:13:36.793Z,0
2017-08-20T03:14:37.400Z,0
2017-08-20T03:15:37.402Z,0
2017-08-20T03:16:37.394Z,0
2017-08-20T03:17:37.395Z,0
2017-08-20T03:18:37.389Z,0
2017-08-20T03:19:37.380Z,0
2017-08-20T03:20:37.383Z,0
2017-08-20T03:21:37.380Z,0
2017-08-20T03:22:37.394Z,0
2017-08-20T03:23:37.375Z,0
2017-08-20T03:24:37.057Z,0
2017-08-20T03:25:37.367Z,0
2017-08-20T03:26:37.354Z,0
2017-08-20T03:27:37.358Z,0
2017-08-20T03:28:37.050Z,0
2017-08-20T03:29:37.346Z,0
2017-08-20T03:30:37.044Z,0
2017-08-20T03:31:37.343Z,0
2017-08-20T03:32:37.037Z,0
2017-08-20T03:33:37.025Z,0
2017-08-20T03:34:36.717Z,0
2017-08-20T03:35:37.328Z,0
2017-08-20T03:36:37.320Z,0
2017-08-20T03:37:37.018Z,0
2017-08-20T03:38:37.009Z,0
2017-08-20T03:39:37.006Z,0
2017-08-20T03:40:37.310Z,0
2017-08-20T03:41:37.329Z,0
2017-08-20T03:42:37.303Z,0
2017-08-20T03:43:37.297Z,0
2017-08-20T03:44:37.296Z,0
2017-08-20T03:45:37.293Z,0
2017-08-20T03:46:37.310Z,0
2017-08-20T03:47:36.985Z,0
2017-08-20T03:48:36.983Z,0
2017-08-20T03:49:36.973Z,0
2017-08-20T03:50:36.968Z,0
2017-08-20T03:51:37.268Z,0
2017-08-20T03:52:36.962Z,0
2017-08-20T03:53:37.268Z,0
2017-08-20T03:54:36.958Z,0
2017-08-20T03:55:37.254Z,0
2017-08-20T03:56:37.260Z,0
2017-08-20T03:57:37.252Z,0
2017-08-20T03:58:36.949Z,0
2017-08-20T03:59:36.328Z,0
2017-08-20T04:00:37.250Z,0
2017-08-20T04:01:37.237Z,0
2017-08-20T04:02:37.231Z,0
2017-08-20T04:03:36.618Z,0
2017-08-20T04:04:37.228Z,4
2017-08-20T04:05:37.218Z,4
2017-08-20T04:06:36.605Z,0
2017-08-20T04:07:37.222Z,4
2017-08-20T04:08:37.208Z,4
2017-08-20T04:09:37.214Z,8
2017-08-20T04:10:37.215Z,4
2017-08-20T04:11:37.199Z,8
2017-08-20T04:12:36.896Z,8
2017-08-20T04:13:36.889Z,12
2017-08-20T04:14:37.189Z,12
2017-08-20T04:15:37.183Z,12
2017-08-20T04:16:37.183Z,16
2017-08-20T04:17:36.572Z,20
2017-08-20T04:18:37.186Z,24
2017-08-20T04:19:37.169Z,28
2017-08-20T04:20:36.857Z,32
2017-08-20T04:21:36.870Z,36
2017-08-20T04:22:37.161Z,40
2017-08-20T04:23:37.171Z,44
2017-08-20T04:24:37.149Z,48
2017-08-20T04:25:37.161Z,56
2017-08-20T04:26:37.146Z,64
2017-08-20T04:27:37.169Z,80
2017-08-20T04:28:37.138Z,96
2017-08-20T04:29:36.829Z,112
2017-08-20T04:30:37.127Z,128
2017-08-20T04:31:37.130Z,148
2017-08-20T04:32:36.831Z,160
2017-08-20T04:33:36.812Z,176
2017-08-20T04:34:36.822Z,196
2017-08-20T04:35:37.110Z,220
2017-08-20T04:36:37.106Z,248
2017-08-20T04:37:37.104Z,284
2017-08-20T04:38:37.099Z,316
2017-08-20T04:39:36.797Z,352
2017-08-20T04:40:36.790Z,396
2017-08-20T04:41:37.086Z,440
2017-08-20T04:42:36.787Z,484
2017-08-20T04:43:36.786Z,532
2017-08-20T04:44:37.077Z,588
2017-08-20T04:45:37.075Z,644
2017-08-20T04:46:37.073Z,696
2017-08-20T04:47:36.462Z,744
2017-08-20T04:48:37.063Z,792
2017-08-20T04:49:37.059Z,848
2017-08-20T04:50:36.760Z,892
2017-08-20T04:51:36.145Z,940
2017-08-20T04:52:36.745Z,980
2017-08-20T04:53:37.050Z,1028
2017-08-20T04:54:36.744Z,1076
2017-08-20T04:55:36.733Z,1140
2017-08-20T04:56:36.434Z,1204
2017-08-20T04:57:36.419Z,1260
2017-08-20T04:58:36.419Z,1284
2017-08-20T04:59:37.026Z,1232
2017-08-20T05:00:37.048Z,1188
2017-08-20T05:01:36.716Z,1208
2017-08-20T05:02:36.705Z,1256
2017-08-20T05:03:36.708Z,1468
2017-08-20T05:04:37.010Z,1460
2017-08-20T05:05:37.003Z,1628
2017-08-20T05:06:36.696Z,2168
2017-08-20T05:07:36.689Z,2348
2017-08-20T05:08:36.685Z,2180
2017-08-20T05:09:36.684Z,1892
2017-08-20T05:10:36.685Z,1736
2017-08-20T05:11:36.370Z,1800
2017-08-20T05:12:36.681Z,1876
2017-08-20T05:13:36.975Z,1948
2017-08-20T05:14:36.368Z,2012
2017-08-20T05:15:36.970Z,2060
2017-08-20T05:16:36.661Z,2116
2017-08-20T05:17:36.656Z,2172
2017-08-20T05:18:36.654Z,2232
2017-08-20T05:19:36.645Z,2276
2017-08-20T05:20:36.650Z,2320
2017-08-20T05:21:36.337Z,2368
2017-08-20T05:22:36.644Z,2416
2017-08-20T05:23:36.635Z,2480
2017-08-20T05:24:36.938Z,2640
2017-08-20T05:25:36.626Z,2796
2017-08-20T05:26:36.937Z,3376
2017-08-20T05:27:36.621Z,4376
2017-08-20T05:28:36.930Z,4504
2017-08-20T05:29:36.920Z,4568
2017-08-20T05:30:36.618Z,4556
2017-08-20T05:31:36.610Z,4492
2017-08-20T05:32:36.327Z,4488
2017-08-20T05:33:36.604Z,4504
2017-08-20T05:34:36.932Z,4500
2017-08-20T05:35:36.596Z,4564
2017-08-20T05:36:36.597Z,4316
2017-08-20T05:37:36.590Z,3912
2017-08-20T05:38:36.598Z,4912
2017-08-20T05:39:36.584Z,5316
2017-08-20T05:40:36.579Z,5356
2017-08-20T05:41:36.575Z,5184
2017-08-20T05:42:36.879Z,5036
2017-08-20T05:43:36.898Z,4760
2017-08-20T05:44:36.879Z,4620
2017-08-20T05:45:36.567Z,4496
2017-08-20T05:46:36.871Z,4436
2017-08-20T05:47:36.870Z,3096
2017-08-20T05:48:36.561Z,2956
2017-08-20T05:49:36.573Z,3008
2017-08-20T05:50:36.868Z,3124
2017-08-20T05:51:36.553Z,3356
2017-08-20T05:52:36.248Z,5192
2017-08-20T05:53:36.855Z,6960
2017-08-20T05:54:36.543Z,7772
2017-08-20T05:55:36.853Z,8120
2017-08-20T05:56:36.850Z,8048
2017-08-20T05:57:36.535Z,7860
2017-08-20T05:58:36.532Z,7436
2017-08-20T05:59:36.858Z,7508
2017-08-20T06:00:36.846Z,7616
2017-08-20T06:01:36.226Z,8308
2017-08-20T06:02:36.533Z,8820
2017-08-20T06:03:36.830Z,8928
2017-08-20T06:04:36.849Z,9420
2017-08-20T06:05:36.529Z,10616
2017-08-20T06:06:36.828Z,10792
2017-08-20T06:07:36.826Z,10696
2017-08-20T06:08:36.214Z,10504
2017-08-20T06:09:36.513Z,10384
2017-08-20T06:10:36.208Z,11004
2017-08-20T06:11:36.519Z,10500
2017-08-20T06:12:36.512Z,10836
2017-08-20T06:13:36.818Z,9828
2017-08-20T06:14:36.504Z,7384
2017-08-20T06:15:36.819Z,5152
2017-08-20T06:16:36.814Z,4960
2017-08-20T06:17:35.894Z,4772
2017-08-20T06:18:36.807Z,6296
2017-08-20T06:19:36.498Z,5252
2017-08-20T06:20:36.501Z,5360
2017-08-20T06:21:36.500Z,5816
2017-08-20T06:22:36.795Z,5536
2017-08-20T06:23:36.800Z,6244
2017-08-20T06:24:36.796Z,10260
2017-08-20T06:25:36.492Z,9120
2017-08-20T06:26:36.484Z,12920
2017-08-20T06:27:36.487Z,12880
2017-08-20T06:28:36.487Z,10868
2017-08-20T06:29:35.870Z,9124
2017-08-20T06:30:36.786Z,11320
2017-08-20T06:31:36.785Z,9684
2017-08-20T06:32:36.475Z,9208
2017-08-20T06:33:36.169Z,7620
2017-08-20T06:34:36.483Z,7588
2017-08-20T06:35:36.786Z,6236
2017-08-20T06:36:36.775Z,6220
2017-08-20T06:37:36.774Z,5656
2017-08-20T06:38:36.776Z,6552
2017-08-20T06:39:36.769Z,7208
2017-08-20T06:40:36.773Z,10512
2017-08-20T06:41:36.158Z,9284
2017-08-20T06:42:36.462Z,9928
2017-08-20T06:43:36.457Z,13100
2017-08-20T06:44:36.461Z,12552
2017-08-20T06:45:36.760Z,12764
2017-08-20T06:46:36.149Z,13720
2017-08-20T06:47:36.759Z,13632
2017-08-20T06:48:36.754Z,15008
2017-08-20T06:49:36.448Z,15712
2017-08-20T06:50:36.781Z,12012
2017-08-20T06:51:36.749Z,8196
2017-08-20T06:52:36.748Z,15936
2017-08-20T06:53:36.459Z,10968
2017-08-20T06:54:36.438Z,8916
2017-08-20T06:55:36.137Z,10064
2017-08-20T06:56:36.745Z,11056
2017-08-20T06:57:36.439Z,18016
2017-08-20T06:58:36.740Z,17664
2017-08-20T06:59:36.747Z,16928
2017-08-20T07:00:36.743Z,17280
2017-08-20T07:01:36.432Z,16992
2017-08-20T07:02:36.734Z,16992
2017-08-20T07:03:36.119Z,17152
2017-08-20T07:04:36.423Z,17344
2017-08-20T07:05:36.424Z,16608
2017-08-20T07:06:36.116Z,14932
2017-08-20T07:07:36.423Z,11436
2017-08-20T07:08:36.419Z,8640
2017-08-20T07:09:36.720Z,8276
2017-08-20T07:10:36.111Z,8168
2017-08-20T07:11:36.421Z,8060
2017-08-20T07:12:36.420Z,8064
2017-08-20T07:13:36.103Z,8056
2017-08-20T07:14:36.108Z,7980
2017-08-20T07:15:36.098Z,7992
2017-08-20T07:16:36.718Z,7928
2017-08-20T07:17:36.098Z,7860
2017-08-20T07:18:36.724Z,7796
2017-08-20T07:19:36.710Z,7692
2017-08-20T07:20:36.098Z,7612
2017-08-20T07:21:36.397Z,7524
2017-08-20T07:22:36.093Z,7460
2017-08-20T07:23:36.705Z,7340
2017-08-20T07:24:36.397Z,7240
2017-08-20T07:25:36.703Z,7144
2017-08-20T07:26:36.698Z,7036
2017-08-20T07:27:36.699Z,6948
2017-08-20T07:28:36.702Z,6840
2017-08-20T07:29:36.393Z,6796
2017-08-20T07:30:36.390Z,6732
2017-08-20T07:31:36.386Z,6680
2017-08-20T07:32:36.401Z,6600
2017-08-20T07:33:36.082Z,6536
2017-08-20T07:34:36.390Z,6476
2017-08-20T07:35:36.388Z,6440
2017-08-20T07:36:36.381Z,6408
2017-08-20T07:37:36.688Z,6376
2017-08-20T07:38:36.691Z,6304
2017-08-20T07:39:36.689Z,6216
2017-08-20T07:40:36.683Z,6136
2017-08-20T07:41:36.694Z,6048
2017-08-20T07:42:36.372Z,5972
2017-08-20T07:43:36.677Z,5856
2017-08-20T07:44:36.066Z,5800
2017-08-20T07:45:36.676Z,5752
2017-08-20T07:46:36.369Z,5724
2017-08-20T07:47:36.367Z,5692
2017-08-20T07:48:36.366Z,5636
2017-08-20T07:49:36.056Z,5576
2017-08-20T07:50:36.676Z,5528
2017-08-20T07:51:36.364Z,5480
2017-08-20T07:52:36.362Z,5420
2017-08-20T07:53:36.666Z,5352
2017-08-20T07:54:36.666Z,5268
2017-08-20T07:55:36.361Z,5208
2017-08-20T07:56:36.659Z,5120
2017-08-20T07:57:36.353Z,5068
2017-08-20T07:58:36.664Z,5012
2017-08-20T07:59:36.361Z,4968
2017-08-20T08:00:36.656Z,4932
2017-08-20T08:01:36.349Z,4888
2017-08-20T08:02:36.656Z,4836
2017-08-20T08:03:36.347Z,4824
2017-08-20T08:04:36.363Z,4804
2017-08-20T08:05:36.654Z,4784
2017-08-20T08:06:36.343Z,4748
2017-08-20T08:07:36.036Z,4720
2017-08-20T08:08:36.342Z,4692
2017-08-20T08:09:36.031Z,4628
2017-08-20T08:10:36.633Z,4616
2017-08-20T08:11:36.329Z,4580
2017-08-20T08:12:36.638Z,4508
2017-08-20T08:13:36.018Z,4444
2017-08-20T08:14:36.644Z,4400
2017-08-20T08:15:36.326Z,4344
2017-08-20T08:16:36.631Z,4292
2017-08-20T08:17:36.320Z,4248
2017-08-20T08:18:36.314Z,4188
2017-08-20T08:19:36.318Z,4168
2017-08-20T08:20:36.316Z,4176
2017-08-20T08:21:36.309Z,4160
2017-08-20T08:22:36.000Z,4136
2017-08-20T08:23:36.612Z,4100
2017-08-20T08:24:36.309Z,4124
2017-08-20T08:25:36.299Z,4212
2017-08-20T08:26:36.317Z,4288
2017-08-20T08:27:35.991Z,4336
2017-08-20T08:28:36.297Z,4340
2017-08-20T08:29:36.606Z,4320
2017-08-20T08:30:36.298Z,4340
2017-08-20T08:31:36.291Z,4372
2017-08-20T08:32:36.599Z,4356
2017-08-20T08:33:36.287Z,4376
2017-08-20T08:34:36.592Z,4288
2017-08-20T08:35:36.592Z,4084
2017-08-20T08:36:35.976Z,3884
2017-08-20T08:37:36.588Z,3680
2017-08-20T08:38:36.586Z,3540
2017-08-20T08:39:36.277Z,3508
2017-08-20T08:40:36.582Z,3516
2017-08-20T08:41:36.579Z,3452
2017-08-20T08:42:35.966Z,3388
2017-08-20T08:43:36.270Z,3320
2017-08-20T08:44:36.573Z,3272
2017-08-20T08:45:36.269Z,3296
2017-08-20T08:46:36.269Z,3296
2017-08-20T08:47:36.566Z,3320
2017-08-20T08:48:36.255Z,3392
2017-08-20T08:49:36.256Z,3400
2017-08-20T08:50:36.258Z,3364
2017-08-20T08:51:36.258Z,3256
2017-08-20T08:52:36.248Z,3204
2017-08-20T08:53:36.249Z,3292
2017-08-20T08:54:36.246Z,3348
2017-08-20T08:55:36.252Z,3340
2017-08-20T08:56:36.239Z,3296
2017-08-20T08:57:36.237Z,3436
2017-08-20T08:58:36.238Z,3532
2017-08-20T08:59:36.545Z,3668
2017-08-20T09:00:36.233Z,3740
2017-08-20T09:01:36.234Z,3744
2017-08-20T09:02:36.536Z,3772
2017-08-20T09:03:36.226Z,3852
2017-08-20T09:04:36.529Z,3844
2017-08-20T09:05:36.528Z,3808
2017-08-20T09:06:36.537Z,3868
2017-08-20T09:07:36.214Z,3984
2017-08-20T09:08:36.517Z,4080
2017-08-20T09:09:36.519Z,4140
2017-08-20T09:10:36.206Z,4264
2017-08-20T09:11:36.510Z,4396
2017-08-20T09:12:36.523Z,4408
2017-08-20T09:13:36.515Z,4512
2017-08-20T09:14:36.200Z,4588
2017-08-20T09:15:36.198Z,4480
2017-08-20T09:16:36.195Z,4392
2017-08-20T09:17:36.505Z,4356
2017-08-20T09:18:36.496Z,4360
2017-08-20T09:19:36.501Z,4332
2017-08-20T09:20:36.501Z,4212
2017-08-20T09:21:36.493Z,4176
2017-08-20T09:22:36.179Z,4116
2017-08-20T09:23:36.489Z,4076
2017-08-20T09:24:36.506Z,4056
2017-08-20T09:25:36.480Z,3996
2017-08-20T09:26:36.479Z,3920
2017-08-20T09:27:36.173Z,4124
2017-08-20T09:28:36.473Z,4228
2017-08-20T09:29:36.473Z,4220
2017-08-20T09:30:36.470Z,4316
2017-08-20T09:31:36.474Z,4364
2017-08-20T09:32:36.466Z,4328
2017-08-20T09:33:36.468Z,4396
2017-08-20T09:34:36.460Z,4424
2017-08-20T09:35:35.847Z,4332
2017-08-20T09:36:36.458Z,4372
2017-08-20T09:37:36.457Z,4428
2017-08-20T09:38:36.464Z,4488
2017-08-20T09:39:36.454Z,4400
2017-08-20T09:40:36.451Z,4392
2017-08-20T09:41:36.450Z,4312
2017-08-20T09:42:36.149Z,4332
2017-08-20T09:43:36.442Z,4348
2017-08-20T09:44:36.439Z,4260
2017-08-20T09:45:36.449Z,4144
2017-08-20T09:46:36.435Z,4252
2017-08-20T09:47:36.445Z,4264
2017-08-20T09:48:36.124Z,4268
2017-08-20T09:49:35.821Z,4348
2017-08-20T09:50:36.430Z,4508
2017-08-20T09:51:36.431Z,4504
2017-08-20T09:52:36.428Z,4268
2017-08-20T09:53:36.425Z,4120
2017-08-20T09:54:36.424Z,4072
2017-08-20T09:55:36.431Z,3956
2017-08-20T09:56:36.418Z,4060
2017-08-20T09:57:36.416Z,4264
2017-08-20T09:58:36.423Z,4352
2017-08-20T09:59:36.415Z,4268
2017-08-20T10:00:36.422Z,4104
2017-08-20T10:01:36.410Z,4008
2017-08-20T10:02:36.401Z,4052
2017-08-20T10:03:36.401Z,4144
2017-08-20T10:04:36.405Z,4196
2017-08-20T10:05:36.092Z,4108
2017-08-20T10:06:36.401Z,4024
2017-08-20T10:07:36.398Z,3948
2017-08-20T10:08:36.087Z,3884
2017-08-20T10:09:36.087Z,3820
2017-08-20T10:10:36.394Z,3704
2017-08-20T10:11:36.386Z,3600
2017-08-20T10:12:36.386Z,3600
2017-08-20T10:13:36.386Z,3512
2017-08-20T10:14:36.383Z,3448
2017-08-20T10:15:36.382Z,3452
2017-08-20T10:16:36.379Z,3532
2017-08-20T10:17:36.375Z,3628
2017-08-20T10:18:36.379Z,3856
2017-08-20T10:19:36.377Z,3916
2017-08-20T10:20:35.776Z,3612
2017-08-20T10:21:36.373Z,3564
2017-08-20T10:22:36.056Z,3652
2017-08-20T10:23:36.373Z,3592
2017-08-20T10:24:36.357Z,3468
2017-08-20T10:25:36.360Z,3352
2017-08-20T10:26:36.381Z,3368
2017-08-20T10:27:36.046Z,3140
2017-08-20T10:28:36.055Z,3036
2017-08-20T10:29:36.047Z,3100
2017-08-20T10:30:36.352Z,3268
2017-08-20T10:31:36.345Z,3284
2017-08-20T10:32:36.346Z,3328
2017-08-20T10:33:36.342Z,3332
2017-08-20T10:34:36.036Z,3368
2017-08-20T10:35:36.032Z,3392
2017-08-20T10:36:35.728Z,3348
2017-08-20T10:37:36.340Z,3396
2017-08-20T10:38:35.722Z,3360
2017-08-20T10:39:36.028Z,3364
2017-08-20T10:40:36.021Z,3480
2017-08-20T10:41:36.018Z,3440
2017-08-20T10:42:36.327Z,3316
2017-08-20T10:43:36.321Z,3172
2017-08-20T10:44:36.347Z,3224
2017-08-20T10:45:36.323Z,3168
2017-08-20T10:46:36.323Z,3084
2017-08-20T10:47:36.318Z,3220
2017-08-20T10:48:36.315Z,3276
2017-08-20T10:49:36.310Z,3324
2017-08-20T10:50:36.305Z,3260
2017-08-20T10:51:36.020Z,3212
2017-08-20T10:52:36.309Z,3220
2017-08-20T10:53:36.300Z,3140
2017-08-20T10:54:36.303Z,3052
2017-08-20T10:55:36.297Z,3044
2017-08-20T10:56:36.299Z,3032
2017-08-20T10:57:36.304Z,2988
2017-08-20T10:58:35.982Z,3012
2017-08-20T10:59:35.979Z,3156
2017-08-20T11:00:35.673Z,3120
2017-08-20T11:01:36.278Z,3032
2017-08-20T11:02:35.973Z,2996
2017-08-20T11:03:36.304Z,2904
2017-08-20T11:04:36.277Z,2848
2017-08-20T11:05:36.276Z,2840
2017-08-20T11:06:36.278Z,2852
2017-08-20T11:07:36.269Z,2876
2017-08-20T11:08:36.270Z,2876
2017-08-20T11:09:36.277Z,2848
2017-08-20T11:10:36.269Z,2804
2017-08-20T11:11:36.279Z,2736
2017-08-20T11:12:36.259Z,2692
2017-08-20T11:13:36.260Z,2636
2017-08-20T11:14:36.260Z,2652
2017-08-20T11:15:36.254Z,2660
2017-08-20T11:16:35.948Z,2664
2017-08-20T11:17:36.253Z,2676
2017-08-20T11:18:36.277Z,2672
2017-08-20T11:19:36.253Z,2660
2017-08-20T11:20:36.239Z,2684
2017-08-20T11:21:36.245Z,2648
2017-08-20T11:22:36.244Z,2664
2017-08-20T11:23:35.938Z,2648
2017-08-20T11:24:36.233Z,2636
2017-08-20T11:25:35.930Z,2612
2017-08-20T11:26:36.230Z,2656
2017-08-20T11:27:36.230Z,2852
2017-08-20T11:28:36.233Z,2980
2017-08-20T11:29:35.921Z,2972
2017-08-20T11:30:36.221Z,3028
2017-08-20T11:31:35.915Z,2912
2017-08-20T11:32:36.224Z,2884
2017-08-20T11:33:36.219Z,2836
2017-08-20T11:34:35.610Z,2808
2017-08-20T11:35:36.220Z,2748
2017-08-20T11:36:35.908Z,2928
2017-08-20T11:37:35.903Z,2920
2017-08-20T11:38:36.207Z,2884
2017-08-20T11:39:36.219Z,2816
2017-08-20T11:40:36.210Z,2724
2017-08-20T11:41:36.198Z,2596
2017-08-20T11:42:35.589Z,2480
2017-08-20T11:43:36.202Z,2456
2017-08-20T11:44:36.228Z,2472
2017-08-20T11:45:36.196Z,2480
2017-08-20T11:46:36.191Z,2544
2017-08-20T11:47:35.881Z,2552
2017-08-20T11:48:36.186Z,2556
2017-08-20T11:49:35.879Z,2504
2017-08-20T11:50:36.180Z,2424
2017-08-20T11:51:36.180Z,2328
2017-08-20T11:52:35.870Z,2264
2017-08-20T11:53:36.182Z,2208
2017-08-20T11:54:36.178Z,2160
2017-08-20T11:55:36.169Z,2100
2017-08-20T11:56:35.862Z,2092
2017-08-20T11:57:36.172Z,2096
2017-08-20T11:58:36.167Z,2104
2017-08-20T11:59:36.157Z,2136
2017-08-20T12:00:36.189Z,2152
2017-08-20T12:01:36.194Z,2152
2017-08-20T12:02:36.155Z,2124
2017-08-20T12:03:36.157Z,2052
2017-08-20T12:04:36.148Z,2012
2017-08-20T12:05:36.149Z,2004
2017-08-20T12:06:36.145Z,2036
2017-08-20T12:07:36.140Z,2084
2017-08-20T12:08:36.141Z,2148
2017-08-20T12:09:36.142Z,2168
2017-08-20T12:10:36.138Z,2152
2017-08-20T12:11:36.136Z,2140
2017-08-20T12:12:36.132Z,2140
2017-08-20T12:13:35.827Z,2128
2017-08-20T12:14:36.133Z,2140
2017-08-20T12:15:35.819Z,2108
2017-08-20T12:16:35.816Z,2068
2017-08-20T12:17:35.809Z,2016
2017-08-20T12:18:35.812Z,1956
2017-08-20T12:19:35.811Z,1892
2017-08-20T12:20:36.113Z,1840
2017-08-20T12:21:36.114Z,1788
2017-08-20T12:22:36.105Z,1748
2017-08-20T12:23:35.805Z,1716
2017-08-20T12:24:36.106Z,1696
2017-08-20T12:25:36.112Z,1684
2017-08-20T12:26:36.105Z,1672
2017-08-20T12:27:36.103Z,1668
2017-08-20T12:28:36.099Z,1664
2017-08-20T12:29:35.786Z,1668
2017-08-20T12:30:35.796Z,1684
2017-08-20T12:31:35.780Z,1688
2017-08-20T12:32:36.095Z,1684
2017-08-20T12:33:35.776Z,1680
2017-08-20T12:34:35.778Z,1684
2017-08-20T12:35:35.777Z,1720
2017-08-20T12:36:35.773Z,1736
2017-08-20T12:37:35.768Z,1696
2017-08-20T12:38:36.074Z,1640
2017-08-20T12:39:35.765Z,1620
2017-08-20T12:40:36.072Z,1620
2017-08-20T12:41:36.071Z,1620
2017-08-20T12:42:35.758Z,1600
2017-08-20T12:43:36.061Z,1584
2017-08-20T12:44:35.751Z,1568
2017-08-20T12:45:36.059Z,1556
2017-08-20T12:46:35.747Z,1540
2017-08-20T12:47:35.746Z,1524
2017-08-20T12:48:36.054Z,1508
2017-08-20T12:49:35.740Z,1504
2017-08-20T12:50:36.043Z,1492
2017-08-20T12:51:35.740Z,1480
2017-08-20T12:52:36.041Z,1464
2017-08-20T12:53:35.430Z,1456
2017-08-20T12:54:36.045Z,1452
2017-08-20T12:55:35.728Z,1444
2017-08-20T12:56:36.034Z,1444
2017-08-20T12:57:36.060Z,1448
2017-08-20T12:58:36.030Z,1452
2017-08-20T12:59:36.032Z,1448
2017-08-20T13:00:35.408Z,1440
2017-08-20T13:01:35.713Z,1440
2017-08-20T13:02:35.399Z,1440
2017-08-20T13:03:35.725Z,1436
2017-08-20T13:04:35.712Z,1428
2017-08-20T13:05:36.017Z,1428
2017-08-20T13:06:35.709Z,1428
2017-08-20T13:07:36.007Z,1424
2017-08-20T13:08:35.703Z,1416
2017-08-20T13:09:35.999Z,1408
2017-08-20T13:10:35.708Z,1400
2017-08-20T13:11:35.692Z,1396
2017-08-20T13:12:35.996Z,1384
2017-08-20T13:13:35.993Z,1376
2017-08-20T13:14:36.006Z,1380
2017-08-20T13:15:35.680Z,1380
2017-08-20T13:16:35.677Z,1372
2017-08-20T13:17:35.683Z,1368
2017-08-20T13:18:35.981Z,1356
2017-08-20T13:19:35.978Z,1352
2017-08-20T13:20:35.675Z,1344
2017-08-20T13:21:35.669Z,1344
2017-08-20T13:22:35.996Z,1336
2017-08-20T13:23:35.664Z,1328
2017-08-20T13:24:35.671Z,1324
2017-08-20T13:25:35.966Z,1316
2017-08-20T13:26:35.964Z,1312
2017-08-20T13:27:35.650Z,1304
2017-08-20T13:28:35.652Z,1304
2017-08-20T13:29:35.650Z,1300
2017-08-20T13:30:35.959Z,1288
2017-08-20T13:31:35.955Z,1272
2017-08-20T13:32:35.950Z,1272
2017-08-20T13:33:35.942Z,1268
2017-08-20T13:34:35.640Z,1268
2017-08-20T13:35:35.636Z,1264
2017-08-20T13:36:35.939Z,1264
2017-08-20T13:37:35.939Z,1268
2017-08-20T13:38:35.939Z,1272
2017-08-20T13:39:35.628Z,1288
2017-08-20T13:40:35.929Z,1292
2017-08-20T13:41:35.619Z,1296
2017-08-20T13:42:35.305Z,1288
2017-08-20T13:43:35.924Z,1276
2017-08-20T13:44:35.614Z,1268